createdAt,value
2018-03-19T00:00:24.060Z,0
2018-03-19T00:01:33.756Z,0
2018-03-19T00:02:42.920Z,0
2018-03-19T00:03:52.880Z,0
2018-03-19T00:05:02.843Z,0
2018-03-19T00:06:12.560Z,0
2018-03-19T00:07:22.522Z,0
2018-03-19T00:08:32.484Z,0
2018-03-19T00:09:42.221Z,0
2018-03-19T00:10:52.179Z,0
2018-03-19T00:12:02.134Z,0
2018-03-19T00:13:11.831Z,0
2018-03-19T00:14:21.413Z,0
2018-03-19T00:15:30.883Z,0
2018-03-19T00:16:40.072Z,0
2018-03-19T00:17:49.775Z,0
2018-03-19T00:18:59.465Z,0
2018-03-19T00:20:09.423Z,0
2018-03-19T00:21:19.388Z,0
2018-03-19T00:22:29.082Z,0
2018-03-19T00:23:39.037Z,0
2018-03-19T00:24:49.015Z,0
2018-03-19T00:25:58.988Z,0
2018-03-19T00:27:08.422Z,0
2018-03-19T00:28:17.854Z,0
2018-03-19T00:29:27.561Z,0
2018-03-19T00:30:37.261Z,0
2018-03-19T00:31:47.214Z,0
2018-03-19T00:32:56.382Z,0
2018-03-19T00:34:06.064Z,0
2018-03-19T00:35:15.752Z,0
2018-03-19T00:36:24.927Z,0
2018-03-19T00:37:34.881Z,0
2018-03-19T00:38:44.573Z,0
2018-03-19T00:39:54.266Z,0
2018-03-19T00:41:04.233Z,0
2018-03-19T00:42:14.183Z,0
2018-03-19T00:43:23.374Z,0
2018-03-19T00:44:33.331Z,0
2018-03-19T00:45:43.313Z,0
2018-03-19T00:46:53.012Z,0
2018-03-19T00:48:02.204Z,0
2018-03-19T00:49:12.151Z,0
2018-03-19T00:50:21.585Z,0
2018-03-19T00:51:31.534Z,0
2018-03-19T00:52:41.502Z,0
2018-03-19T00:53:51.196Z,0
2018-03-19T00:55:01.161Z,0
2018-03-19T00:56:11.116Z,0
2018-03-19T00:57:20.548Z,0
2018-03-19T00:58:30.500Z,0
2018-03-19T00:59:40.221Z,0
2018-03-19T01:00:50.205Z,0
2018-03-19T01:01:59.903Z,0
2018-03-19T01:03:09.870Z,0
2018-03-19T01:04:19.879Z,0
2018-03-19T01:05:29.915Z,0
2018-03-19T01:06:39.344Z,0
2018-03-19T01:07:49.041Z,0
2018-03-19T01:08:58.990Z,0
2018-03-19T01:10:08.956Z,0
2018-03-19T01:11:18.928Z,0
2018-03-19T01:12:28.631Z,0
2018-03-19T01:13:38.586Z,0
2018-03-19T01:14:48.552Z,0
2018-03-19T01:15:58.554Z,0
2018-03-19T01:17:08.249Z,0
2018-03-19T01:18:17.954Z,0
2018-03-19T01:19:27.129Z,0
2018-03-19T01:20:36.841Z,0
2018-03-19T01:21:46.535Z,0
2018-03-19T01:22:56.491Z,0
2018-03-19T01:24:06.184Z,0
2018-03-19T01:25:15.623Z,0
2018-03-19T01:26:25.047Z,0
2018-03-19T01:27:34.483Z,0
2018-03-19T01:28:44.441Z,0
2018-03-19T01:29:53.876Z,0
2018-03-19T01:31:03.332Z,0
2018-03-19T01:32:13.301Z,0
2018-03-19T01:33:22.989Z,0
2018-03-19T01:34:32.454Z,0
2018-03-19T01:35:42.147Z,0
2018-03-19T01:36:51.831Z,0
2018-03-19T01:38:01.262Z,0
2018-03-19T01:39:10.690Z,0
2018-03-19T01:40:20.650Z,0
2018-03-19T01:41:30.092Z,0
2018-03-19T01:42:39.779Z,0
2018-03-19T01:43:49.462Z,0
2018-03-19T01:44:59.475Z,0
2018-03-19T01:46:09.425Z,0
2018-03-19T01:47:18.867Z,0
2018-03-19T01:48:29.129Z,0
2018-03-19T01:49:38.830Z,0
2018-03-19T01:50:48.525Z,0
2018-03-19T01:51:57.956Z,0
2018-03-19T01:53:07.918Z,0
2018-03-19T01:54:17.617Z,0
2018-03-19T01:55:27.334Z,0
2018-03-19T01:56:36.753Z,0
2018-03-19T01:57:46.444Z,0
2018-03-19T01:58:56.145Z,0
2018-03-19T02:00:05.836Z,0
2018-03-19T02:01:15.522Z,0
2018-03-19T02:02:25.229Z,0
2018-03-19T02:03:35.197Z,0
2018-03-19T02:04:45.146Z,0
2018-03-19T02:05:55.090Z,0
2018-03-19T02:07:05.049Z,0
2018-03-19T02:08:15.015Z,0
2018-03-19T02:09:24.968Z,0
2018-03-19T02:10:34.927Z,0
2018-03-19T02:11:44.632Z,0
2018-03-19T02:12:54.577Z,0
2018-03-19T02:14:04.312Z,0
2018-03-19T02:15:14.002Z,0
2018-03-19T02:16:23.700Z,0
2018-03-19T02:17:33.402Z,0
2018-03-19T02:18:43.371Z,0
2018-03-19T02:19:53.325Z,0
2018-03-19T02:21:03.271Z,0
2018-03-19T02:22:12.987Z,0
2018-03-19T02:23:22.931Z,0
2018-03-19T02:24:32.883Z,0
2018-03-19T02:25:42.578Z,0
2018-03-19T02:26:52.509Z,0
2018-03-19T02:28:02.212Z,0
2018-03-19T02:29:12.139Z,0
2018-03-19T02:30:21.854Z,0
2018-03-19T02:31:31.825Z,0
2018-03-19T02:32:41.778Z,0
2018-03-19T02:33:51.743Z,0
2018-03-19T02:35:01.714Z,0
2018-03-19T02:36:11.662Z,0
2018-03-19T02:37:21.505Z,0
2018-03-19T02:38:30.559Z,0
2018-03-19T02:39:40.512Z,0
2018-03-19T02:40:50.484Z,0
2018-03-19T02:42:00.227Z,0
2018-03-19T02:43:09.930Z,0
2018-03-19T02:44:19.636Z,0
2018-03-19T02:45:29.346Z,0
2018-03-19T02:46:38.804Z,0
2018-03-19T02:47:48.491Z,0
2018-03-19T02:48:57.931Z,0
2018-03-19T02:50:07.370Z,0
2018-03-19T02:51:16.817Z,0
2018-03-19T02:52:26.520Z,0
2018-03-19T02:53:36.489Z,0
2018-03-19T02:54:45.673Z,0
2018-03-19T02:55:55.382Z,0
2018-03-19T02:57:05.073Z,0
2018-03-19T02:58:14.797Z,0
2018-03-19T02:59:24.254Z,0
2018-03-19T03:00:34.215Z,0
2018-03-19T03:01:44.175Z,0
2018-03-19T03:02:53.861Z,0
2018-03-19T03:04:03.289Z,0
2018-03-19T03:05:12.999Z,0
2018-03-19T03:06:22.445Z,0
2018-03-19T03:07:32.157Z,0
2018-03-19T03:08:42.115Z,0
2018-03-19T03:09:51.800Z,0
2018-03-19T03:11:01.500Z,0
2018-03-19T03:12:11.452Z,0
2018-03-19T03:13:21.159Z,0
2018-03-19T03:14:30.596Z,0
2018-03-19T03:15:40.024Z,0
2018-03-19T03:16:49.467Z,0
2018-03-19T03:17:59.416Z,0
2018-03-19T03:19:09.361Z,0
2018-03-19T03:20:19.315Z,0
2018-03-19T03:21:28.751Z,0
2018-03-19T03:22:38.706Z,0
2018-03-19T03:23:48.144Z,0
2018-03-19T03:24:58.104Z,0
2018-03-19T03:26:08.065Z,0
2018-03-19T03:27:17.234Z,0
2018-03-19T03:28:27.196Z,0
2018-03-19T03:29:36.110Z,0
2018-03-19T03:30:45.021Z,0
2018-03-19T03:31:54.718Z,0
2018-03-19T03:33:04.141Z,0
2018-03-19T03:34:13.626Z,0
2018-03-19T03:35:23.060Z,0
2018-03-19T03:36:32.755Z,0
2018-03-19T03:37:42.712Z,0
2018-03-19T03:38:52.663Z,0
2018-03-19T03:40:02.614Z,0
2018-03-19T03:41:12.352Z,0
2018-03-19T03:42:22.064Z,0
2018-03-19T03:43:31.249Z,0
2018-03-19T03:44:40.670Z,0
2018-03-19T03:45:50.631Z,0
2018-03-19T03:47:00.332Z,0
2018-03-19T03:48:09.769Z,0
2018-03-19T03:49:19.777Z,0
2018-03-19T03:50:29.210Z,0
2018-03-19T03:51:38.642Z,0
2018-03-19T03:52:48.388Z,0
2018-03-19T03:53:58.344Z,0
2018-03-19T03:55:08.046Z,0
2018-03-19T03:56:18.257Z,0
2018-03-19T03:57:28.216Z,0
2018-03-19T03:58:38.179Z,0
2018-03-19T03:59:47.605Z,0
2018-03-19T04:00:57.549Z,0
2018-03-19T04:02:06.974Z,0
2018-03-19T04:03:16.694Z,0
2018-03-19T04:04:26.655Z,0
2018-03-19T04:05:36.597Z,0
2018-03-19T04:06:46.545Z,0
2018-03-19T04:07:56.233Z,0
2018-03-19T04:09:05.917Z,0
2018-03-19T04:10:15.867Z,0
2018-03-19T04:11:25.816Z,0
2018-03-19T04:12:35.253Z,0
2018-03-19T04:13:45.203Z,0
2018-03-19T04:14:54.639Z,0
2018-03-19T04:16:04.601Z,0
2018-03-19T04:17:14.038Z,0
2018-03-19T04:18:23.723Z,0
2018-03-19T04:19:33.672Z,0
2018-03-19T04:20:43.626Z,0
2018-03-19T04:21:53.585Z,0
2018-03-19T04:23:03.280Z,0
2018-03-19T04:24:12.971Z,0
2018-03-19T04:25:22.952Z,0
2018-03-19T04:26:32.900Z,0
2018-03-19T04:27:42.588Z,0
2018-03-19T04:28:52.543Z,0
2018-03-19T04:30:01.970Z,0
2018-03-19T04:31:11.711Z,0
2018-03-19T04:32:21.141Z,0
2018-03-19T04:33:31.080Z,0
2018-03-19T04:34:40.503Z,0
2018-03-19T04:35:50.193Z,0
2018-03-19T04:36:59.891Z,0
2018-03-19T04:38:09.596Z,4
2018-03-19T04:39:19.572Z,4
2018-03-19T04:40:29.282Z,0
2018-03-19T04:41:39.239Z,4
2018-03-19T04:42:49.188Z,4
2018-03-19T04:43:58.882Z,4
2018-03-19T04:45:08.839Z,8
2018-03-19T04:46:18.849Z,8
2018-03-19T04:47:28.578Z,12
2018-03-19T04:48:38.275Z,12
2018-03-19T04:49:47.704Z,16
2018-03-19T04:50:57.646Z,16
2018-03-19T04:52:07.604Z,24
2018-03-19T04:53:17.306Z,28
2018-03-19T04:54:26.758Z,32
2018-03-19T04:55:35.935Z,44
2018-03-19T04:56:45.627Z,52
2018-03-19T04:57:55.163Z,60
2018-03-19T04:59:05.118Z,72
2018-03-19T05:00:14.558Z,88
2018-03-19T05:01:23.997Z,104
2018-03-19T05:02:33.183Z,128
2018-03-19T05:03:43.134Z,148
2018-03-19T05:04:53.085Z,172
2018-03-19T05:06:03.059Z,208
2018-03-19T05:07:12.758Z,240
2018-03-19T05:08:22.728Z,280
2018-03-19T05:09:32.687Z,324
2018-03-19T05:10:42.366Z,372
2018-03-19T05:11:52.566Z,420
2018-03-19T05:13:01.733Z,480
2018-03-19T05:14:11.461Z,540
2018-03-19T05:15:21.164Z,608
2018-03-19T05:16:30.856Z,676
2018-03-19T05:17:40.436Z,752
2018-03-19T05:18:50.140Z,828
2018-03-19T05:20:00.096Z,912
2018-03-19T05:21:10.051Z,1000
2018-03-19T05:22:19.747Z,1088
2018-03-19T05:23:29.467Z,1184
2018-03-19T05:24:39.425Z,1280
2018-03-19T05:25:49.378Z,1380
2018-03-19T05:26:59.123Z,1476
2018-03-19T05:28:08.819Z,1576
2018-03-19T05:29:18.251Z,1676
2018-03-19T05:30:28.206Z,1780
2018-03-19T05:31:38.149Z,1888
2018-03-19T05:32:47.314Z,1980
2018-03-19T05:33:57.009Z,2080
2018-03-19T05:35:06.714Z,2188
2018-03-19T05:36:16.715Z,2296
2018-03-19T05:37:26.682Z,2396
2018-03-19T05:38:36.433Z,2500
2018-03-19T05:39:46.189Z,2592
2018-03-19T05:40:56.161Z,2700
2018-03-19T05:42:05.852Z,2832
2018-03-19T05:43:15.545Z,2896
2018-03-19T05:44:24.982Z,2996
2018-03-19T05:45:34.920Z,3108
2018-03-19T05:46:44.609Z,3192
2018-03-19T05:47:54.037Z,3276
2018-03-19T05:49:03.467Z,3360
2018-03-19T05:50:13.361Z,3468
2018-03-19T05:51:23.316Z,3544
2018-03-19T05:52:33.270Z,3628
2018-03-19T05:53:43.031Z,3736
2018-03-19T05:54:52.978Z,3860
2018-03-19T05:56:02.947Z,3884
2018-03-19T05:57:12.385Z,3976
2018-03-19T05:58:21.562Z,4040
2018-03-19T05:59:31.251Z,4128
2018-03-19T06:00:41.269Z,4228
2018-03-19T06:01:51.232Z,4268
2018-03-19T06:03:00.928Z,4352
2018-03-19T06:04:10.881Z,4428
2018-03-19T06:05:20.898Z,4488
2018-03-19T06:06:30.921Z,4588
2018-03-19T06:07:40.615Z,4620
2018-03-19T06:08:49.791Z,4704
2018-03-19T06:09:59.472Z,4768
2018-03-19T06:11:09.187Z,4836
2018-03-19T06:12:18.888Z,4928
2018-03-19T06:13:28.674Z,4964
2018-03-19T06:14:38.392Z,5044
2018-03-19T06:15:48.358Z,5096
2018-03-19T06:16:58.300Z,5288
2018-03-19T06:18:07.994Z,5296
2018-03-19T06:19:17.702Z,5260
2018-03-19T06:20:27.656Z,5408
2018-03-19T06:21:37.621Z,5396
2018-03-19T06:22:47.605Z,5512
2018-03-19T06:23:57.570Z,5504
2018-03-19T06:25:07.614Z,5556
2018-03-19T06:26:17.579Z,5648
2018-03-19T06:27:27.276Z,5672
2018-03-19T06:28:36.985Z,5788
2018-03-19T06:29:46.693Z,5784
2018-03-19T06:30:56.656Z,5836
2018-03-19T06:32:06.361Z,5992
2018-03-19T06:33:16.323Z,5932
2018-03-19T06:34:26.291Z,6092
2018-03-19T06:35:35.729Z,6016
2018-03-19T06:36:45.212Z,6080
2018-03-19T06:37:54.640Z,6136
2018-03-19T06:39:04.599Z,6172
2018-03-19T06:40:14.576Z,6320
2018-03-19T06:41:24.536Z,6352
2018-03-19T06:42:34.266Z,6308
2018-03-19T06:43:44.219Z,6360
2018-03-19T06:44:54.187Z,6456
2018-03-19T06:46:04.144Z,6476
2018-03-19T06:47:13.926Z,6572
2018-03-19T06:48:23.956Z,6516
2018-03-19T06:49:33.915Z,6544
2018-03-19T06:50:43.888Z,6580
2018-03-19T06:51:53.842Z,6816
2018-03-19T06:53:03.548Z,6680
2018-03-19T06:54:13.495Z,6708
2018-03-19T06:55:23.460Z,6764
2018-03-19T06:56:33.429Z,6820
2018-03-19T06:57:43.379Z,6920
2018-03-19T06:58:53.081Z,6900
2018-03-19T07:00:03.042Z,6932
2018-03-19T07:01:12.492Z,6980
2018-03-19T07:02:21.936Z,7016
2018-03-19T07:03:31.389Z,7152
2018-03-19T07:04:41.097Z,7116
2018-03-19T07:05:50.803Z,7176
2018-03-19T07:07:00.495Z,7256
2018-03-19T07:08:10.454Z,7316
2018-03-19T07:09:20.416Z,7348
2018-03-19T07:10:30.385Z,7484
2018-03-19T07:11:40.422Z,7484
2018-03-19T07:12:50.162Z,7528
2018-03-19T07:13:59.635Z,7640
2018-03-19T07:15:09.342Z,7792
2018-03-19T07:16:19.040Z,7752
2018-03-19T07:17:28.748Z,7792
2018-03-19T07:18:38.708Z,7984
2018-03-19T07:19:48.407Z,7892
2018-03-19T07:20:57.850Z,7900
2018-03-19T07:22:07.039Z,7936
2018-03-19T07:23:16.809Z,7948
2018-03-19T07:24:26.771Z,8056
2018-03-19T07:25:36.737Z,8092
2018-03-19T07:26:46.703Z,8128
2018-03-19T07:27:56.399Z,8148
2018-03-19T07:29:05.856Z,8240
2018-03-19T07:30:15.839Z,8288
2018-03-19T07:31:25.801Z,8320
2018-03-19T07:32:35.896Z,8424
2018-03-19T07:33:45.857Z,8472
2018-03-19T07:34:55.557Z,8628
2018-03-19T07:36:05.543Z,8828
2018-03-19T07:37:15.505Z,8816
2018-03-19T07:38:25.200Z,8684
2018-03-19T07:39:35.249Z,8644
2018-03-19T07:40:45.237Z,8628
2018-03-19T07:41:55.209Z,8652
2018-03-19T07:43:05.159Z,8648
2018-03-19T07:44:14.865Z,8764
2018-03-19T07:45:25.270Z,8728
2018-03-19T07:46:35.261Z,8744
2018-03-19T07:47:45.024Z,8836
2018-03-19T07:48:54.234Z,8808
2018-03-19T07:50:03.962Z,8872
2018-03-19T07:51:13.531Z,8948
2018-03-19T07:52:23.505Z,8948
2018-03-19T07:53:33.490Z,8972
2018-03-19T07:54:42.958Z,9072
2018-03-19T07:55:52.924Z,9084
2018-03-19T07:57:02.617Z,9096
2018-03-19T07:58:12.582Z,9100
2018-03-19T07:59:22.554Z,9180
2018-03-19T08:00:32.268Z,9212
2018-03-19T08:01:41.966Z,9204
2018-03-19T08:02:51.921Z,9292
2018-03-19T08:04:01.617Z,9288
2018-03-19T08:05:11.063Z,9364
2018-03-19T08:06:20.516Z,9316
2018-03-19T08:07:29.960Z,9356
2018-03-19T08:08:39.940Z,9416
2018-03-19T08:09:49.379Z,9476
2018-03-19T08:10:58.821Z,9528
2018-03-19T08:12:08.882Z,9540
2018-03-19T08:13:18.910Z,9544
2018-03-19T08:14:28.353Z,9552
2018-03-19T08:15:38.325Z,9676
2018-03-19T08:16:48.118Z,10612
2018-03-19T08:17:57.819Z,19680
2018-03-19T08:19:07.800Z,26208
2018-03-19T08:20:16.989Z,25184
2018-03-19T08:21:26.915Z,27776
2018-03-19T08:22:36.643Z,26752
2018-03-19T08:23:46.859Z,28896
2018-03-19T08:24:56.568Z,28800
2018-03-19T08:26:06.537Z,29248
2018-03-19T08:27:16.178Z,26976
2018-03-19T08:28:25.948Z,26880
2018-03-19T08:29:35.914Z,27136
2018-03-19T08:30:45.398Z,27776
2018-03-19T08:31:55.392Z,29408
2018-03-19T08:33:05.110Z,27712
2018-03-19T08:34:14.301Z,27136
2018-03-19T08:35:24.002Z,26656
2018-03-19T08:36:33.974Z,27840
2018-03-19T08:37:43.690Z,27968
2018-03-19T08:38:53.140Z,27840
2018-03-19T08:40:03.126Z,28192
2018-03-19T08:41:12.626Z,28480
2018-03-19T08:42:22.666Z,28416
2018-03-19T08:43:32.629Z,29152
2018-03-19T08:44:42.342Z,29472
2018-03-19T08:45:52.108Z,29504
2018-03-19T08:47:01.822Z,29536
2018-03-19T08:48:11.270Z,30208
2018-03-19T08:49:20.716Z,30656
2018-03-19T08:50:30.455Z,30816
2018-03-19T08:51:40.161Z,30432
2018-03-19T08:52:49.369Z,31232
2018-03-19T08:53:59.084Z,31808
2018-03-19T08:55:08.552Z,31744
2018-03-19T08:56:18.043Z,32096
2018-03-19T08:57:27.766Z,32288
2018-03-19T08:58:38.465Z,32640
2018-03-19T08:59:47.927Z,32896
2018-03-19T09:00:57.116Z,33440
2018-03-19T09:02:09.953Z,33088
2018-03-19T09:03:19.677Z,33696
2018-03-19T09:04:29.305Z,33888
2018-03-19T09:05:39.283Z,34848
2018-03-19T09:06:48.993Z,36416
2018-03-19T09:07:58.442Z,36512
2018-03-19T09:09:08.202Z,38656
2018-03-19T09:10:17.923Z,39040
2018-03-19T09:11:28.148Z,38784
2018-03-19T09:12:37.622Z,42080
2018-03-19T09:13:46.861Z,44256
2018-03-19T09:14:56.617Z,49664
2018-03-19T09:16:06.347Z,52256
2018-03-19T09:17:15.799Z,52672
2018-03-19T09:18:25.518Z,53376
2018-03-19T09:19:35.483Z,56608
2018-03-19T09:20:45.485Z,58592
2018-03-19T09:21:55.358Z,58624
2018-03-19T09:23:05.351Z,58432
2018-03-19T09:24:15.337Z,62752
2018-03-19T09:25:25.076Z,60928
2018-03-19T09:26:34.804Z,59968
2018-03-19T09:27:44.811Z,62048
2018-03-19T09:28:54.555Z,62496
2018-03-19T09:30:04.539Z,63872
2018-03-19T09:31:14.700Z,65888
2018-03-19T09:32:24.161Z,68096
2018-03-19T09:33:34.154Z,68352
2018-03-19T09:34:43.631Z,69120
2018-03-19T09:35:53.659Z,69760
2018-03-19T09:37:03.132Z,69920
2018-03-19T09:38:12.851Z,70720
2018-03-19T09:39:22.566Z,75904
2018-03-19T09:40:32.330Z,76576
2018-03-19T09:41:42.533Z,76576
2018-03-19T09:42:52.511Z,74912
2018-03-19T09:44:02.504Z,73984
2018-03-19T09:45:12.490Z,75296
2018-03-19T09:46:22.204Z,73184
2018-03-19T09:47:31.685Z,73824
2018-03-19T09:48:41.144Z,73888
2018-03-19T09:49:50.915Z,75424
2018-03-19T09:51:00.102Z,74272
2018-03-19T09:52:09.298Z,74976
2018-03-19T09:53:19.006Z,79456
2018-03-19T09:54:29.019Z,80000
2018-03-19T09:55:38.474Z,80352
2018-03-19T09:56:48.699Z,79872
2018-03-19T09:57:58.731Z,84448
2018-03-19T09:59:08.441Z,86944
2018-03-19T10:00:17.911Z,87136
2018-03-19T10:01:27.123Z,87968
2018-03-19T10:02:36.841Z,86656
2018-03-19T10:03:46.558Z,85696
2018-03-19T10:04:56.542Z,84896
2018-03-19T10:06:06.274Z,85696
2018-03-19T10:07:15.996Z,86560
2018-03-19T10:08:25.477Z,88800
2018-03-19T10:09:35.195Z,88192
2018-03-19T10:10:44.913Z,87040
2018-03-19T10:11:54.107Z,85536
2018-03-19T10:13:04.086Z,88448
2018-03-19T10:14:13.574Z,87264
2018-03-19T10:15:23.311Z,86240
2018-03-19T10:16:33.348Z,89024
2018-03-19T10:17:43.075Z,92672
2018-03-19T10:18:53.038Z,92032
2018-03-19T10:20:03.057Z,97536
2018-03-19T10:21:12.813Z,95552
2018-03-19T10:22:22.283Z,96416
2018-03-19T10:23:32.032Z,96320
2018-03-19T10:24:41.755Z,98368
2018-03-19T10:25:51.460Z,98176
2018-03-19T10:27:01.180Z,97248
2018-03-19T10:28:10.885Z,96896
2018-03-19T10:29:20.859Z,97856
2018-03-19T10:30:30.577Z,99648
2018-03-19T10:31:40.583Z,100064
2018-03-19T10:32:50.298Z,97952
2018-03-19T10:34:00.282Z,95232
2018-03-19T10:35:10.280Z,94432
2018-03-19T10:36:20.265Z,97984
2018-03-19T10:37:30.259Z,92576
2018-03-19T10:38:40.441Z,96032
2018-03-19T10:39:50.475Z,94816
2018-03-19T10:41:00.190Z,96608
2018-03-19T10:42:10.198Z,93888
2018-03-19T10:43:20.230Z,94656
2018-03-19T10:44:29.987Z,96032
2018-03-19T10:45:39.426Z,95072
2018-03-19T10:46:48.888Z,103712
2018-03-19T10:47:58.907Z,103104
2018-03-19T10:49:08.632Z,105824
2018-03-19T10:50:18.351Z,103008
2018-03-19T10:51:28.372Z,103744
2018-03-19T10:52:38.091Z,101760
2018-03-19T10:53:48.076Z,108640
2018-03-19T10:54:58.121Z,112480
2018-03-19T10:56:07.840Z,116288
2018-03-19T10:57:17.867Z,108800
2018-03-19T10:58:27.872Z,106496
2018-03-19T10:59:37.861Z,108256
2018-03-19T11:00:47.581Z,105792
2018-03-19T11:01:57.555Z,103776
2018-03-19T11:03:07.562Z,107968
2018-03-19T11:04:17.292Z,106880
2018-03-19T11:05:27.048Z,108192
2018-03-19T11:06:36.782Z,107072
2018-03-19T11:07:46.494Z,112192
2018-03-19T11:08:56.219Z,112896
2018-03-19T11:10:06.195Z,106336
2018-03-19T11:11:15.915Z,112704
2018-03-19T11:12:25.911Z,113088
2018-03-19T11:13:35.995Z,111104
2018-03-19T11:14:45.462Z,114880
2018-03-19T11:15:55.224Z,117152
2018-03-19T11:17:04.737Z,110016
2018-03-19T11:18:14.260Z,111648
2018-03-19T11:19:23.724Z,113312
2018-03-19T11:20:33.540Z,105824
2018-03-19T11:21:43.563Z,108384
2018-03-19T11:22:52.775Z,116992
2018-03-19T11:24:02.533Z,113792
2018-03-19T11:25:12.562Z,119264
2018-03-19T11:26:22.558Z,117792
2018-03-19T11:27:32.031Z,117920
2018-03-19T11:28:41.243Z,118496
2018-03-19T11:29:51.253Z,112384
2018-03-19T11:31:00.749Z,117248
2018-03-19T11:32:10.773Z,120160
2018-03-19T11:33:20.792Z,116864
2018-03-19T11:34:30.824Z,118752
2018-03-19T11:35:40.548Z,124288
2018-03-19T11:36:50.036Z,117248
2018-03-19T11:38:00.023Z,113088
2018-03-19T11:39:09.999Z,118144
2018-03-19T11:40:19.742Z,114560
2018-03-19T11:41:28.950Z,108768
2018-03-19T11:42:38.414Z,112640
2018-03-19T11:43:48.123Z,111488
2018-03-19T11:44:58.126Z,112736
2018-03-19T11:46:07.864Z,114176
2018-03-19T11:47:18.224Z,121344
2018-03-19T11:48:28.033Z,113472
2018-03-19T11:49:37.534Z,111776
2018-03-19T11:50:47.020Z,113376
2018-03-19T11:51:57.285Z,108832
2018-03-19T11:53:07.288Z,115648
2018-03-19T11:54:17.192Z,115872
2018-03-19T11:55:27.189Z,109824
2018-03-19T11:56:36.675Z,107584
2018-03-19T11:57:46.428Z,118464
2018-03-19T11:58:56.412Z,121888
2018-03-19T12:00:06.141Z,117824
2018-03-19T12:01:15.596Z,121696
2018-03-19T12:02:25.363Z,118080
2018-03-19T12:03:35.346Z,111872
2018-03-19T12:04:44.799Z,109728
2018-03-19T12:05:54.590Z,111904
2018-03-19T12:07:04.379Z,117344
2018-03-19T12:08:14.383Z,113792
2018-03-19T12:09:23.846Z,117184
2018-03-19T12:10:33.646Z,124416
2018-03-19T12:11:43.632Z,124064
2018-03-19T12:12:53.113Z,122368
2018-03-19T12:14:02.573Z,121856
2018-03-19T12:15:12.571Z,120160
2018-03-19T12:16:22.560Z,116544
2018-03-19T12:17:32.286Z,118400
2018-03-19T12:18:41.753Z,122624
2018-03-19T12:19:51.743Z,119712
2018-03-19T12:21:01.715Z,122336
2018-03-19T12:22:11.193Z,126656
2018-03-19T12:23:21.165Z,115136
2018-03-19T12:24:30.889Z,119616
2018-03-19T12:25:40.607Z,122688
2018-03-19T12:26:50.485Z,126848
2018-03-19T12:28:00.405Z,121952
2018-03-19T12:29:10.455Z,126464
2018-03-19T12:30:20.451Z,133088
2018-03-19T12:31:30.238Z,127040
2018-03-19T12:32:39.971Z,130592
2018-03-19T12:33:49.953Z,127328
2018-03-19T12:34:59.945Z,127968
2018-03-19T12:36:09.951Z,127360
2018-03-19T12:37:19.932Z,123616
2018-03-19T12:38:29.660Z,125856
2018-03-19T12:39:39.647Z,125152
2018-03-19T12:40:49.663Z,129248
2018-03-19T12:41:59.639Z,128640
2018-03-19T12:43:09.605Z,128608
2018-03-19T12:44:19.059Z,125792
2018-03-19T12:45:28.569Z,125184
2018-03-19T12:46:38.557Z,125696
2018-03-19T12:47:48.557Z,123328
2018-03-19T12:48:58.022Z,122656
2018-03-19T12:50:07.488Z,124096
2018-03-19T12:51:17.226Z,122368
2018-03-19T12:52:26.950Z,124544
2018-03-19T12:53:36.407Z,121056
2018-03-19T12:54:46.142Z,121120
2018-03-19T12:55:55.943Z,121600
2018-03-19T12:57:05.713Z,126528
2018-03-19T12:58:15.449Z,125888
2018-03-19T12:59:25.459Z,119360
2018-03-19T13:00:34.989Z,123424
2018-03-19T13:01:44.991Z,129216
2018-03-19T13:02:54.458Z,121696
2018-03-19T13:04:04.196Z,122944
2018-03-19T13:05:14.192Z,125760
2018-03-19T13:06:23.643Z,120256
2018-03-19T13:07:33.135Z,125024
2018-03-19T13:08:43.164Z,124928
2018-03-19T13:09:52.901Z,125312
2018-03-19T13:11:02.633Z,116608
2018-03-19T13:12:12.351Z,115648
2018-03-19T13:13:21.814Z,121632
2018-03-19T13:14:31.538Z,120352
2018-03-19T13:15:41.262Z,119232
2018-03-19T13:16:50.725Z,117632
2018-03-19T13:17:59.928Z,124608
2018-03-19T13:19:09.387Z,125504
2018-03-19T13:20:18.846Z,116704
2018-03-19T13:21:28.305Z,113120
2018-03-19T13:22:38.024Z,119520
2018-03-19T13:23:47.730Z,118208
2018-03-19T13:24:57.182Z,114656
2018-03-19T13:26:07.172Z,116800
2018-03-19T13:27:17.143Z,117632
2018-03-19T13:28:27.125Z,120576
2018-03-19T13:29:37.094Z,113504
2018-03-19T13:30:46.804Z,110400
2018-03-19T13:31:56.514Z,116384
2018-03-19T13:33:06.234Z,114944
2018-03-19T13:34:15.688Z,108544
2018-03-19T13:35:25.419Z,107904
2018-03-19T13:36:35.135Z,106304
2018-03-19T13:37:45.118Z,108768
2018-03-19T13:38:55.101Z,108992
2018-03-19T13:40:05.420Z,104512
2018-03-19T13:41:14.621Z,108320
2018-03-19T13:42:24.339Z,122720
2018-03-19T13:43:34.084Z,120928
2018-03-19T13:44:43.821Z,114656
2018-03-19T13:45:53.537Z,127936
2018-03-19T13:47:03.240Z,110464
2018-03-19T13:48:12.962Z,100576
2018-03-19T13:49:22.973Z,107872
2018-03-19T13:50:32.695Z,93856
2018-03-19T13:51:48.706Z,107424
2018-03-19T13:52:58.438Z,116448
2018-03-19T13:54:08.218Z,108800
2018-03-19T13:55:17.952Z,106272
2018-03-19T13:56:27.945Z,109120
2018-03-19T13:57:37.697Z,108224
2018-03-19T13:58:47.692Z,106976
2018-03-19T13:59:57.712Z,103296
2018-03-19T14:01:07.696Z,107584
2018-03-19T14:02:17.436Z,109568
2018-03-19T14:03:26.917Z,102720
2018-03-19T14:04:36.379Z,101952
2018-03-19T14:05:46.429Z,105568
2018-03-19T14:06:56.416Z,99488
2018-03-19T14:08:06.152Z,95584
2018-03-19T14:09:15.870Z,98560
2018-03-19T14:10:25.854Z,99104
2018-03-19T14:11:35.630Z,103648
2018-03-19T14:12:45.612Z,103520
2018-03-19T14:13:55.327Z,99424
2018-03-19T14:15:04.514Z,97248
2018-03-19T14:16:14.220Z,92064
2018-03-19T14:17:23.929Z,93408
2018-03-19T14:18:33.639Z,79328
2018-03-19T14:19:43.145Z,86336
2018-03-19T14:20:53.126Z,100480
2018-03-19T14:22:03.124Z,99744
2018-03-19T14:23:12.836Z,96448
2018-03-19T14:24:22.825Z,106688
2018-03-19T14:25:32.878Z,112128
2018-03-19T14:26:42.878Z,105536
2018-03-19T14:27:53.127Z,96448
2018-03-19T14:29:03.114Z,89152
2018-03-19T14:30:13.125Z,91456
2018-03-19T14:31:23.145Z,92672
2018-03-19T14:32:33.138Z,89728
2018-03-19T14:33:43.130Z,92192
2018-03-19T14:34:52.595Z,92576
2018-03-19T14:36:02.395Z,89824
2018-03-19T14:37:12.385Z,89216
2018-03-19T14:38:22.381Z,92256
2018-03-19T14:39:32.493Z,93568
2018-03-19T14:40:42.223Z,96960
2018-03-19T14:41:52.371Z,96224
2018-03-19T14:43:02.101Z,91968
2018-03-19T14:44:11.577Z,91296
2018-03-19T14:45:21.320Z,91008
2018-03-19T14:46:30.769Z,84576
2018-03-19T14:47:40.741Z,87936
2018-03-19T14:48:50.185Z,87680
2018-03-19T14:49:59.903Z,85120
2018-03-19T14:51:09.625Z,81600
2018-03-19T14:52:19.636Z,90848
2018-03-19T14:53:29.366Z,88640
2018-03-19T14:54:39.225Z,91744
2018-03-19T14:55:48.676Z,87104
2018-03-19T14:56:58.698Z,85376
2018-03-19T14:58:08.474Z,92064
2018-03-19T14:59:18.468Z,83520
2018-03-19T15:00:28.202Z,84992
2018-03-19T15:01:37.684Z,93920
2018-03-19T15:02:47.667Z,86592
2018-03-19T15:03:57.642Z,86496
2018-03-19T15:05:07.653Z,98624
2018-03-19T15:06:17.107Z,87360
2018-03-19T15:07:26.834Z,74176
2018-03-19T15:08:36.044Z,77472
2018-03-19T15:09:45.831Z,78368
2018-03-19T15:10:55.932Z,79264
2018-03-19T15:12:05.925Z,81408
2018-03-19T15:13:15.662Z,75744
2018-03-19T15:14:25.409Z,74016
2018-03-19T15:15:35.127Z,77504
2018-03-19T15:16:45.105Z,74912
2018-03-19T15:17:55.098Z,77184
2018-03-19T15:19:04.833Z,78656
2018-03-19T15:20:14.563Z,73344
2018-03-19T15:21:24.558Z,70880
2018-03-19T15:22:34.347Z,68512
2018-03-19T15:23:43.824Z,68736
2018-03-19T15:24:53.811Z,73312
2018-03-19T15:26:03.327Z,70400
2018-03-19T15:27:13.066Z,68832
2018-03-19T15:28:22.556Z,64992
2018-03-19T15:29:32.023Z,63232
2018-03-19T15:30:41.749Z,62816
2018-03-19T15:31:51.746Z,63296
2018-03-19T15:33:00.680Z,60224
2018-03-19T15:34:10.400Z,60448
2018-03-19T15:35:20.384Z,54080
2018-03-19T15:36:30.184Z,55200